createdAt,value
2023-03-04T00:02:25.381Z,2.80
2023-03-04T00:05:27.731Z,2.90
2023-03-04T00:08:29.516Z,2.90
2023-03-04T00:11:32.883Z,2.90
2023-03-04T00:14:34.492Z,2.90
2023-03-04T00:17:36.277Z,2.90
2023-03-04T00:20:38.315Z,2.90
2023-03-04T00:23:41.398Z,2.90
2023-03-04T00:26:43.851Z,2.90
2023-03-04T00:29:45.692Z,3.00
2023-03-04T00:32:47.566Z,3.00
2023-03-04T00:35:49.484Z,3.00
2023-03-04T00:38:51.298Z,3.00
2023-03-04T00:41:53.291Z,3.00
2023-03-04T00:44:55.134Z,3.00
2023-03-04T00:47:56.908Z,3.00
2023-03-04T00:50:58.669Z,3.10
2023-03-04T00:54:01.046Z,3.10
2023-03-04T00:57:03.194Z,3.10
2023-03-04T01:00:05.793Z,3.00
2023-03-04T01:03:07.609Z,3.00
2023-03-04T01:06:09.986Z,3.00
2023-03-04T01:09:12.061Z,3.00
2023-03-04T01:12:14.079Z,3.00
2023-03-04T01:15:15.872Z,2.90
2023-03-04T01:18:17.738Z,2.90
2023-03-04T01:21:19.496Z,3.00
2023-03-04T01:24:21.286Z,3.00
2023-03-04T01:27:23.268Z,3.00
2023-03-04T01:30:25.215Z,3.00
2023-03-04T01:33:27.220Z,3.10
2023-03-04T01:36:29.089Z,3.10
2023-03-04T01:39:30.905Z,3.20
2023-03-04T01:42:35.447Z,3.20
2023-03-04T01:45:39.988Z,3.20
2023-03-04T01:48:42.367Z,3.20
2023-03-04T01:51:49.158Z,3.10
2023-03-04T01:54:51.139Z,3.20
2023-03-04T01:57:54.147Z,3.20
2023-03-04T02:00:57.564Z,3.20
2023-03-04T02:03:59.887Z,3.20
2023-03-04T02:07:03.997Z,3.20
2023-03-04T02:10:06.260Z,3.20
2023-03-04T02:13:08.531Z,3.20
2023-03-04T02:16:10.640Z,3.30
2023-03-04T02:19:30.652Z,3.30
2023-03-04T02:22:35.777Z,3.20
2023-03-04T02:25:46.630Z,3.30
2023-03-04T02:28:50.619Z,3.30
2023-03-04T02:31:54.534Z,3.40
2023-03-04T02:34:56.805Z,3.40
2023-03-04T02:37:58.656Z,3.40
2023-03-04T02:41:00.969Z,3.40
2023-03-04T02:44:03.328Z,3.40
2023-03-04T02:47:07.653Z,3.40
2023-03-04T02:50:10.400Z,3.50
2023-03-04T02:53:12.468Z,3.50
2023-03-04T02:56:14.279Z,3.40
2023-03-04T02:59:16.962Z,3.40
2023-03-04T03:02:18.881Z,3.50
2023-03-04T03:05:21.683Z,3.50
2023-03-04T03:08:24.367Z,3.50
2023-03-04T03:11:26.806Z,3.60
2023-03-04T03:14:28.701Z,3.60
2023-03-04T03:17:30.739Z,3.60
2023-03-04T03:20:32.649Z,3.60
2023-03-04T03:23:35.412Z,3.60
2023-03-04T03:26:37.226Z,3.60
2023-03-04T03:29:39.051Z,3.60
2023-03-04T03:32:40.970Z,3.60
2023-03-04T03:35:42.945Z,3.70
2023-03-04T03:38:46.117Z,3.70
2023-03-04T03:41:48.288Z,3.60
2023-03-04T03:44:50.446Z,3.60
2023-03-04T03:47:52.216Z,3.70
2023-03-04T03:50:53.985Z,3.70
2023-03-04T03:53:55.827Z,3.80
2023-03-04T03:56:57.891Z,3.80
2023-03-04T03:59:59.739Z,3.80
2023-03-04T04:03:01.963Z,3.70
2023-03-04T04:06:04.055Z,3.70
2023-03-04T04:09:06.024Z,3.70
2023-03-04T04:12:08.436Z,3.70
2023-03-04T04:15:12.753Z,3.70
2023-03-04T04:18:14.610Z,3.70
2023-03-04T04:21:16.455Z,3.80
2023-03-04T04:24:18.293Z,3.80
2023-03-04T04:27:20.352Z,3.80
2023-03-04T04:30:22.199Z,3.80
2023-03-04T04:33:24.233Z,3.90
2023-03-04T04:36:26.949Z,3.90
2023-03-04T04:39:28.882Z,4.00
2023-03-04T04:42:31.068Z,4.10
2023-03-04T04:45:32.842Z,4.20
2023-03-04T04:48:34.623Z,4.20
2023-03-04T04:51:38.698Z,4.20
2023-03-04T04:54:40.487Z,4.20
2023-03-04T04:57:42.264Z,4.20
2023-03-04T05:00:44.322Z,4.20
2023-03-04T05:03:46.393Z,4.20
2023-03-04T05:06:48.341Z,4.20
2023-03-04T05:09:50.183Z,4.20
2023-03-04T05:12:52.003Z,4.20
2023-03-04T05:15:56.411Z,4.20
2023-03-04T05:18:58.190Z,4.30
2023-03-04T05:22:00.193Z,4.30
2023-03-04T05:25:02.229Z,4.30
2023-03-04T05:28:05.024Z,4.40
2023-03-04T05:31:07.425Z,4.40
2023-03-04T05:34:09.412Z,4.40
2023-03-04T05:37:11.229Z,4.50
2023-03-04T05:40:13.577Z,4.50
2023-03-04T05:43:16.322Z,4.50
2023-03-04T05:46:19.319Z,4.50
2023-03-04T05:49:21.196Z,4.50
2023-03-04T05:52:22.958Z,4.40
2023-03-04T05:55:25.583Z,4.40
2023-03-04T05:58:27.506Z,4.40
2023-03-04T06:01:30.301Z,4.40
2023-03-04T06:07:50.199Z,4.40
2023-03-04T06:10:55.203Z,4.40
2023-03-04T06:13:57.142Z,4.40
2023-03-04T06:16:58.986Z,4.30
2023-03-04T06:20:00.873Z,4.30
2023-03-04T06:23:03.710Z,4.30
2023-03-04T06:26:09.328Z,4.30
2023-03-04T06:29:11.568Z,4.30
2023-03-04T06:32:13.576Z,4.30
2023-03-04T06:35:16.611Z,4.40
2023-03-04T06:38:18.393Z,4.40
2023-03-04T06:41:20.334Z,4.40
2023-03-04T06:44:22.290Z,4.40
2023-03-04T06:47:24.111Z,4.40
2023-03-04T06:50:25.928Z,4.40
2023-03-04T06:53:27.703Z,4.40
2023-03-04T06:56:29.550Z,4.40
2023-03-04T06:59:31.645Z,4.40
2023-03-04T07:02:33.757Z,4.40
2023-03-04T07:05:36.091Z,4.40
2023-03-04T07:08:38.226Z,4.40
2023-03-04T07:11:40.266Z,4.50
2023-03-04T07:14:42.207Z,4.40
2023-03-04T07:17:43.963Z,4.40
2023-03-04T07:20:45.923Z,4.40
2023-03-04T07:23:47.978Z,4.40
2023-03-04T07:26:50.017Z,4.50
2023-03-04T07:29:51.799Z,4.50
2023-03-04T07:32:54.106Z,4.50
2023-03-04T07:36:00.027Z,4.50
2023-03-04T07:39:02.285Z,4.60
2023-03-04T07:42:04.205Z,4.60
2023-03-04T07:45:06.976Z,4.70
2023-03-04T07:48:09.000Z,4.70
2023-03-04T07:51:12.515Z,4.70
2023-03-04T07:54:14.590Z,4.80
2023-03-04T07:57:16.456Z,4.70
2023-03-04T08:00:18.776Z,4.80
2023-03-04T08:03:29.673Z,4.80
2023-03-04T08:06:32.785Z,4.90
2023-03-04T08:09:34.843Z,4.90
2023-03-04T08:12:37.096Z,4.90
2023-03-04T08:15:43.528Z,4.90
2023-03-04T08:18:48.240Z,4.90
2023-03-04T08:21:50.453Z,5.00
2023-03-04T08:24:52.312Z,5.00
2023-03-04T08:27:54.140Z,5.00
2023-03-04T08:30:56.799Z,5.00
2023-03-04T08:33:58.714Z,5.00
2023-03-04T08:37:00.558Z,5.00
2023-03-04T08:40:02.473Z,5.10
2023-03-04T08:43:04.555Z,5.10
2023-03-04T08:46:06.553Z,5.20
2023-03-04T08:49:10.662Z,5.20
2023-03-04T08:52:12.909Z,5.30
2023-03-04T08:55:14.734Z,5.30
2023-03-04T08:58:16.752Z,5.30
2023-03-04T09:01:18.678Z,5.40
2023-03-04T09:04:20.599Z,5.50
2023-03-04T09:07:22.681Z,5.40
2023-03-04T09:10:25.521Z,5.50
2023-03-04T09:13:29.998Z,5.50
2023-03-04T09:16:34.924Z,5.50
2023-03-04T09:19:37.736Z,5.60
2023-03-04T09:22:41.261Z,5.60
2023-03-04T09:25:43.907Z,5.60
2023-03-04T09:28:45.895Z,5.60
2023-03-04T09:31:48.086Z,5.70
2023-03-04T09:34:50.100Z,5.70
2023-03-04T09:37:52.907Z,5.80
2023-03-04T09:40:54.854Z,5.80
2023-03-04T09:43:57.720Z,5.70
2023-03-04T09:47:03.419Z,5.70
2023-03-04T09:50:10.029Z,5.70
2023-03-04T09:53:25.860Z,5.70
2023-03-04T09:56:28.349Z,5.70
2023-03-04T09:59:43.711Z,5.70
2023-03-04T10:03:00.047Z,5.70
2023-03-04T10:06:07.460Z,5.80
2023-03-04T10:09:18.526Z,5.90
2023-03-04T10:12:25.643Z,5.90
2023-03-04T10:15:48.432Z,5.90
2023-03-04T10:18:58.863Z,6.00
2023-03-04T10:22:01.780Z,6.00
2023-03-04T10:25:19.432Z,6.10
2023-03-04T10:28:27.089Z,6.10
2023-03-04T10:31:37.517Z,6.20
2023-03-04T10:34:39.417Z,6.30
2023-03-04T10:37:50.151Z,6.20
2023-03-04T10:40:52.037Z,6.30
2023-03-04T10:44:09.065Z,6.40
2023-03-04T10:47:12.028Z,6.40
2023-03-04T10:50:23.275Z,6.50
2023-03-04T10:53:37.669Z,6.60
2023-03-04T10:56:52.856Z,6.60
2023-03-04T10:59:59.874Z,6.60
2023-03-04T11:03:23.627Z,6.60
2023-03-04T11:06:27.449Z,6.60
2023-03-04T11:09:31.484Z,6.60
2023-03-04T11:12:35.188Z,6.60
2023-03-04T11:15:56.194Z,6.60
2023-03-04T11:19:06.699Z,6.60
2023-03-04T11:22:14.641Z,6.50
2023-03-04T11:25:36.715Z,6.50
2023-03-04T11:28:56.739Z,6.50
2023-03-04T11:32:01.374Z,6.50
2023-03-04T11:35:35.369Z,6.50
2023-03-04T11:38:42.227Z,6.60
2023-03-04T11:41:58.568Z,6.50
2023-03-04T11:45:00.740Z,6.50
2023-03-04T11:48:27.743Z,6.50
2023-03-04T11:51:40.669Z,6.60
2023-03-04T11:55:00.992Z,6.60
2023-03-04T11:58:19.312Z,6.60
2023-03-04T12:01:39.207Z,6.80
2023-03-04T12:05:19.589Z,6.80
2023-03-04T12:08:42.770Z,7.00
2023-03-04T12:11:59.891Z,7.00
2023-03-04T12:15:10.726Z,7.00
2023-03-04T12:18:39.757Z,7.00
2023-03-04T12:22:07.016Z,7.00
2023-03-04T12:25:37.888Z,7.00
2023-03-04T12:28:52.557Z,7.00
2023-03-04T12:31:59.239Z,7.10
2023-03-04T12:35:12.867Z,7.10
2023-03-04T12:38:44.054Z,7.00
2023-03-04T12:41:58.206Z,7.00
2023-03-04T12:45:08.931Z,6.90
2023-03-04T12:48:25.674Z,6.90
2023-03-04T12:51:43.465Z,6.90
2023-03-04T12:54:58.255Z,7.00
2023-03-04T12:58:00.169Z,7.00
2023-03-04T13:01:25.930Z,7.00
2023-03-04T13:04:50.585Z,6.90
2023-03-04T13:08:12.116Z,6.90
2023-03-04T13:11:26.200Z,6.90
2023-03-04T13:14:30.107Z,6.90
2023-03-04T13:17:41.528Z,6.90
2023-03-04T13:20:45.395Z,6.90
2023-03-04T13:23:47.280Z,7.00
2023-03-04T13:26:49.120Z,7.00
2023-03-04T13:29:50.924Z,7.00
2023-03-04T13:32:52.929Z,7.00
2023-03-04T13:36:04.363Z,6.90
2023-03-04T13:39:15.179Z,6.90
2023-03-04T13:42:44.262Z,6.90
2023-03-04T13:45:46.238Z,6.90
2023-03-04T13:48:51.474Z,6.90
2023-03-04T13:51:53.746Z,7.00
2023-03-04T13:55:35.548Z,7.00
2023-03-04T13:58:39.209Z,7.00
2023-03-04T14:01:44.013Z,7.00
2023-03-04T14:04:54.680Z,7.10
2023-03-04T14:07:56.909Z,7.00
2023-03-04T14:10:58.999Z,7.10
2023-03-04T14:14:07.768Z,7.10
2023-03-04T14:17:19.185Z,7.10
2023-03-04T14:20:51.305Z,7.10
2023-03-04T14:24:14.073Z,7.10
2023-03-04T14:27:15.852Z,7.10
2023-03-04T14:30:41.715Z,7.10
2023-03-04T14:33:47.430Z,7.00
2023-03-04T14:36:49.497Z,7.10
2023-03-04T14:39:56.268Z,7.10
2023-03-04T14:43:05.563Z,7.10
2023-03-04T14:46:13.260Z,7.10
2023-03-04T14:49:16.191Z,7.10
2023-03-04T14:52:53.812Z,7.10
2023-03-04T14:55:56.528Z,7.10
2023-03-04T14:58:59.517Z,7.10
2023-03-04T15:02:19.921Z,7.10
2023-03-04T15:05:30.423Z,7.10
2023-03-04T15:08:38.456Z,7.00
2023-03-04T15:12:02.008Z,7.00
2023-03-04T15:15:43.567Z,7.00
2023-03-04T15:18:57.002Z,7.00
2023-03-04T15:22:08.252Z,7.00
2023-03-04T15:25:15.272Z,7.10
2023-03-04T15:28:21.306Z,7.00
2023-03-04T15:31:25.837Z,7.00
2023-03-04T15:34:27.837Z,7.00
2023-03-04T15:37:30.074Z,7.00
2023-03-04T15:40:44.816Z,7.00
2023-03-04T15:43:46.972Z,7.10
2023-03-04T15:46:48.832Z,7.10
2023-03-04T15:49:51.758Z,7.10
2023-03-04T15:52:57.425Z,7.10
2023-03-04T15:56:00.431Z,7.10
2023-03-04T15:59:09.380Z,7.10
2023-03-04T16:02:27.531Z,7.10
2023-03-04T16:05:29.513Z,7.10
2023-03-04T16:08:32.359Z,7.10
2023-03-04T16:11:39.348Z,7.00
2023-03-04T16:14:42.428Z,7.00
2023-03-04T16:17:44.926Z,7.00
2023-03-04T16:20:49.182Z,7.00
2023-03-04T16:23:52.450Z,7.00
2023-03-04T16:26:54.315Z,7.00
2023-03-04T16:29:56.068Z,7.00
2023-03-04T16:32:58.077Z,6.90
2023-03-04T16:36:00.122Z,7.00
2023-03-04T16:39:07.951Z,7.00
2023-03-04T16:42:16.615Z,6.90
2023-03-04T16:45:21.066Z,6.80
2023-03-04T16:48:23.000Z,6.90
2023-03-04T16:51:24.900Z,6.80
2023-03-04T16:54:30.543Z,6.80
2023-03-04T16:57:32.361Z,6.80
2023-03-04T17:00:34.376Z,6.80
2023-03-04T17:03:36.183Z,6.90
2023-03-04T17:06:39.824Z,6.90
2023-03-04T17:09:41.937Z,6.80
2023-03-04T17:12:43.989Z,6.80
2023-03-04T17:15:46.950Z,6.80
2023-03-04T17:18:49.036Z,6.80
2023-03-04T17:21:50.890Z,6.80
2023-03-04T17:24:52.684Z,6.90
2023-03-04T17:27:54.726Z,6.90
2023-03-04T17:30:56.682Z,6.90
2023-03-04T17:33:58.526Z,6.80
2023-03-04T17:37:00.368Z,6.80
2023-03-04T17:40:04.700Z,6.70
2023-03-04T17:43:11.442Z,6.70
2023-03-04T17:46:14.825Z,6.70
2023-03-04T17:49:16.623Z,6.70
2023-03-04T17:52:19.286Z,6.80
2023-03-04T17:55:21.210Z,6.70
2023-03-04T17:58:23.993Z,6.70
2023-03-04T18:01:26.757Z,6.70
2023-03-04T18:04:28.520Z,6.70
2023-03-04T18:07:30.748Z,6.70
2023-03-04T18:10:33.088Z,6.70
2023-03-04T18:13:37.140Z,6.70
2023-03-04T18:16:39.695Z,6.70
2023-03-04T18:19:42.333Z,6.70
2023-03-04T18:22:44.747Z,6.70
2023-03-04T18:25:46.729Z,6.70
2023-03-04T18:28:48.603Z,6.60
2023-03-04T18:31:50.607Z,6.60
2023-03-04T18:34:52.571Z,6.60
2023-03-04T18:37:54.802Z,6.60
2023-03-04T18:41:01.366Z,6.60
2023-03-04T18:44:03.390Z,6.60
2023-03-04T18:47:06.871Z,6.60
2023-03-04T18:50:09.986Z,6.50
2023-03-04T18:53:11.931Z,6.50
2023-03-04T18:56:21.640Z,6.50
2023-03-04T18:59:37.696Z,6.50
2023-03-04T19:03:04.223Z,6.50
2023-03-04T19:06:07.490Z,6.50
2023-03-04T19:09:09.580Z,6.50
2023-03-04T19:12:12.294Z,6.50
2023-03-04T19:15:15.598Z,6.50
2023-03-04T19:18:17.699Z,6.40
2023-03-04T19:21:19.825Z,6.40
2023-03-04T19:24:21.906Z,6.40
2023-03-04T19:27:24.266Z,6.40
2023-03-04T19:30:26.222Z,6.40
2023-03-04T19:33:28.311Z,6.40
2023-03-04T19:36:30.959Z,6.40
2023-03-04T19:39:32.954Z,6.40
2023-03-04T19:42:35.183Z,6.40
2023-03-04T19:45:37.097Z,6.40
2023-03-04T19:48:39.929Z,6.40
2023-03-04T19:51:41.944Z,6.40
2023-03-04T19:54:43.916Z,6.40
2023-03-04T19:57:45.787Z,6.40
2023-03-04T20:00:47.888Z,6.40
2023-03-04T20:03:49.829Z,6.40
2023-03-04T20:06:52.459Z,6.50
2023-03-04T20:09:57.852Z,6.40
2023-03-04T20:12:59.707Z,6.40
2023-03-04T20:16:01.757Z,6.50
2023-03-04T20:19:04.227Z,6.60
2023-03-04T20:22:07.046Z,6.70
2023-03-04T20:25:09.501Z,6.60
2023-03-04T20:28:11.386Z,6.60
2023-03-04T20:31:28.180Z,6.60
2023-03-04T20:34:29.981Z,6.60
2023-03-04T20:37:32.244Z,6.60
2023-03-04T20:40:36.059Z,6.50
2023-03-04T20:43:38.044Z,6.50
2023-03-04T20:46:43.643Z,6.50
2023-03-04T20:49:45.506Z,6.50
2023-03-04T20:52:48.344Z,6.50
2023-03-04T20:55:50.322Z,6.50
2023-03-04T20:58:53.469Z,6.50
2023-03-04T21:01:55.469Z,6.40
2023-03-04T21:04:57.622Z,6.40
2023-03-04T21:07:59.490Z,6.40
2023-03-04T21:11:02.564Z,6.40
2023-03-04T21:14:04.319Z,6.40
2023-03-04T21:17:06.184Z,6.40
2023-03-04T21:20:08.986Z,6.40
2023-03-04T21:23:11.090Z,6.40
2023-03-04T21:26:12.952Z,6.40
2023-03-04T21:29:20.299Z,6.40
2023-03-04T21:32:27.375Z,6.40
2023-03-04T21:35:29.562Z,6.40
2023-03-04T21:38:31.505Z,6.40
2023-03-04T21:41:33.361Z,6.40
2023-03-04T21:44:48.575Z,6.40
2023-03-04T21:47:51.600Z,6.40
2023-03-04T21:50:54.307Z,6.30
2023-03-04T21:53:56.333Z,6.30
2023-03-04T21:56:58.312Z,6.30
2023-03-04T22:00:00.385Z,6.20
2023-03-04T22:03:02.647Z,6.20
2023-03-04T22:06:06.448Z,6.30
2023-03-04T22:09:09.697Z,6.20
2023-03-04T22:12:11.748Z,6.30
2023-03-04T22:15:13.608Z,6.30
2023-03-04T22:18:15.905Z,6.30
2023-03-04T22:21:19.620Z,6.30
2023-03-04T22:24:23.129Z,6.30
2023-03-04T22:27:25.010Z,6.20
2023-03-04T22:30:27.114Z,6.20
2023-03-04T22:33:29.717Z,6.10
2023-03-04T22:36:36.931Z,6.10
2023-03-04T22:39:38.980Z,6.10
2023-03-04T22:42:42.508Z,6.00
2023-03-04T22:45:44.618Z,6.10
2023-03-04T22:48:46.698Z,6.10
2023-03-04T22:51:48.476Z,6.00
2023-03-04T22:54:50.499Z,6.10
2023-03-04T22:57:52.468Z,6.00
2023-03-04T23:00:54.449Z,6.00
2023-03-04T23:03:56.411Z,6.00
2023-03-04T23:06:58.671Z,6.00
2023-03-04T23:10:01.485Z,6.10
2023-03-04T23:13:03.441Z,6.10
2023-03-04T23:16:08.123Z,6.00
2023-03-04T23:19:14.861Z,6.00
2023-03-04T23:22:16.893Z,6.00
2023-03-04T23:25:18.857Z,6.10
2023-03-04T23:28:20.800Z,6.10
2023-03-04T23:31:23.125Z,6.00
2023-03-04T23:34:25.644Z,6.10
2023-03-04T23:37:27.604Z,6.20
2023-03-04T23:40:29.499Z,6.10
2023-03-04T23:43:33.299Z,6.10
2023-03-04T23:46:37.806Z,6.10
2023-03-04T23:49:40.007Z,6.10
2023-03-04T23:52:44.058Z,6.00
2023-03-04T23:55:46.695Z,6.00
2023-03-04T23:58:49.048Z,6.00
